Terminal Aerodrome Forecast
Issued by NWS

Home | Current Version | Previous Version | Text Only | Print | Product List | Glossary On
Versions: 1 2 3 4 5 6 7 8 9 10 11 12 13 14 15 16 17 18 19 20 21 22 23
962
FTUS41 KPBZ 101904 AAA
TAFDUJ
TAF AMD
KDUJ 101904Z 1019/1118 25012G20KT 1SM -SHSN BR OVC015
     FM102300 27010G20KT 1SM -SHSN OVC007
     FM110300 28010G16KT 3SM -SHSN OVC010
     FM111200 29010G20KT 4SM -SHSN OVC015=

USA.gov is the U.S. government's official web portal to all federal, state and local government web resources and services.